Time;durP1;ratioP1;P1;durP2;ratioP2;P2;SDS_P1;SDS_P2;PMS_P1;PMS_P2;Temp;Humidity;BMP_temperature;BMP_pressure;BME280_temperature;BME280_humidity;BME280_pressure;Samples;Min_cycle;Max_cycle;Signal;HPM_P1;HPM_P2
2022/11/12 00:00:17;;;;;;;17.55;9.02;;;8.30;99.90;;;;;;5024817;28;20116;-75
2022/11/12 00:02:43;;;;;;;17.10;9.70;;;8.20;99.90;;;;;;5023415;28;20041;-74
2022/11/12 00:05:09;;;;;;;15.15;9.48;;;8.20;99.90;;;;;;5026035;28;20041;-75
2022/11/12 00:07:34;;;;;;;14.93;8.43;;;8.10;99.90;;;;;;5025948;28;20103;-75
2022/11/12 00:10:00;;;;;;;12.05;7.07;;;8.10;99.90;;;;;;5021184;28;20037;-75
2022/11/12 00:12:26;;;;;;;9.80;6.43;;;8.10;99.90;;;;;;5026132;28;20472;-74
2022/11/12 00:14:51;;;;;;;37.80;20.70;;;8.00;99.90;;;;;;5025477;28;20045;-75
2022/11/12 00:17:17;;;;;;;64.05;38.63;;;8.00;99.90;;;;;;5024430;28;20500;-74
2022/11/12 00:19:42;;;;;;;25.08;12.40;;;7.90;99.90;;;;;;5018622;28;20104;-74
2022/11/12 00:22:08;;;;;;;10.10;7.28;;;7.90;99.90;;;;;;5007539;28;20058;-74
2022/11/12 00:24:34;;;;;;;16.05;6.65;;;7.80;99.90;;;;;;5024740;28;20455;-74
2022/11/12 00:26:59;;;;;;;17.30;9.45;;;7.80;99.90;;;;;;5006694;28;20037;-75
2022/11/12 00:29:25;;;;;;;15.73;8.77;;;7.80;99.90;;;;;;5005643;28;20053;-75
2022/11/12 00:31:50;;;;;;;15.73;7.82;;;7.70;99.90;;;;;;5004853;28;20078;-75
2022/11/12 00:34:16;;;;;;;13.98;8.48;;;7.70;99.90;;;;;;5003748;28;20052;-75
2022/11/12 00:36:41;;;;;;;15.85;8.20;;;7.70;99.90;;;;;;5015085;28;20075;-75
2022/11/12 00:39:07;;;;;;;19.17;11.18;;;7.70;99.90;;;;;;5020782;28;20045;-75
2022/11/12 00:41:32;;;;;;;28.40;14.48;;;7.60;99.90;;;;;;5004693;28;20124;-76
2022/11/12 00:43:58;;;;;;;16.88;12.48;;;7.60;99.90;;;;;;4988239;28;20096;-75
2022/11/12 00:46:24;;;;;;;9.63;7.15;;;7.60;99.90;;;;;;4988944;28;20507;-74
2022/11/12 00:48:49;;;;;;;10.80;8.35;;;7.60;99.90;;;;;;5003448;28;20041;-75
2022/11/12 00:51:15;;;;;;;9.98;6.38;;;7.60;99.90;;;;;;5005536;28;20045;-74
2022/11/12 00:53:40;;;;;;;11.18;7.90;;;7.60;99.90;;;;;;5005723;28;20502;-74
2022/11/12 00:56:07;;;;;;;12.25;7.15;;;7.60;99.90;;;;;;4987700;28;20029;-74
2022/11/12 00:58:35;;;;;;;9.50;6.30;;;7.50;99.90;;;;;;5004559;28;20603;-75
2022/11/12 01:01:11;;;;;;;9.88;6.13;;;7.50;99.90;;;;;;5011236;28;20041;-75
2022/11/12 01:03:39;;;;;;;9.43;6.50;;;7.50;99.90;;;;;;5023034;28;20041;-74
2022/11/12 01:06:07;;;;;;;7.72;5.43;;;7.40;99.90;;;;;;5024743;28;20041;-74
2022/11/12 01:08:33;;;;;;;7.55;5.18;;;7.40;99.90;;;;;;5023859;28;20072;-74
2022/11/12 01:11:11;;;;;;;9.38;4.53;;;7.40;99.90;;;;;;5023670;28;20061;-74
2022/11/12 01:13:37;;;;;;;4.47;4.10;;;7.40;99.90;;;;;;5024880;28;20037;-75
2022/11/12 01:16:13;;;;;;;6.05;5.00;;;7.40;99.90;;;;;;5024562;28;20142;-74
2022/11/12 01:18:40;;;;;;;7.43;5.80;;;7.40;99.90;;;;;;5016592;28;20042;-74
2022/11/12 01:21:06;;;;;;;6.65;4.63;;;7.40;99.90;;;;;;5023339;28;20513;-75
2022/11/12 01:23:37;;;;;;;10.57;5.68;;;7.40;99.90;;;;;;5024491;28;20254;-75
2022/11/12 01:26:08;;;;;;;8.75;5.50;;;7.40;99.90;;;;;;5014389;28;20049;-75
2022/11/12 01:28:34;;;;;;;5.55;4.75;;;7.40;99.90;;;;;;5004633;28;20072;-74
2022/11/12 01:31:36;;;;;;;5.28;4.32;;;7.40;99.90;;;;;;5004514;28;20038;-74
2022/11/12 01:34:06;;;;;;;4.13;3.70;;;7.30;99.90;;;;;;4961972;28;20449;-74
2022/11/12 01:36:34;;;;;;;6.30;5.70;;;7.20;99.90;;;;;;4985324;28;20061;-75
2022/11/12 01:39:00;;;;;;;6.15;4.03;;;7.20;99.90;;;;;;4984900;28;20042;-74
2022/11/12 01:41:32;;;;;;;5.43;3.47;;;7.10;99.90;;;;;;4985238;28;20115;-74
2022/11/12 01:44:19;;;;;;;6.20;4.35;;;7.10;99.90;;;;;;4985546;28;20716;-74
2022/11/12 01:47:06;;;;;;;6.80;5.65;;;7.10;99.90;;;;;;4983678;28;20723;-74
2022/11/12 01:50:04;;;;;;;4.05;3.55;;;7.10;99.90;;;;;;5008939;28;20124;-74
2022/11/12 01:52:35;;;;;;;11.32;5.65;;;7.10;99.90;;;;;;5022665;28;20522;-74
2022/11/12 01:55:11;;;;;;;7.82;4.30;;;7.10;99.90;;;;;;5006521;28;20084;-74
2022/11/12 01:57:41;;;;;;;5.03;4.50;;;7.00;99.90;;;;;;5022941;28;20045;-74
2022/11/12 02:00:10;;;;;;;5.65;5.13;;;7.00;99.90;;;;;;5022921;28;20096;-75
2022/11/12 02:02:37;;;;;;;6.95;4.20;;;7.00;99.90;;;;;;5072061;22;20061;-77
2022/11/12 02:05:07;;;;;;;4.07;3.70;;;7.00;99.90;;;;;;5003819;28;20491;-76
2022/11/12 02:07:36;;;;;;;9.90;4.57;;;7.10;99.90;;;;;;5004154;28;20081;-76
2022/11/12 02:10:04;;;;;;;8.00;4.43;;;7.10;99.90;;;;;;5003820;28;20048;-77
2022/11/12 02:15:14;;;;;;;10.77;5.93;;;7.10;99.90;;;;;;5004202;28;20089;-77
2022/11/12 02:17:39;;;;;;;10.55;5.40;;;7.10;99.90;;;;;;5003362;28;20073;-77
2022/11/12 02:20:09;;;;;;;13.60;7.55;;;7.10;99.90;;;;;;5021401;28;20045;-77
2022/11/12 02:22:34;;;;;;;8.93;5.70;;;7.20;99.90;;;;;;5022780;28;20112;-77
2022/11/12 02:25:00;;;;;;;4.90;4.38;;;7.20;99.90;;;;;;5022204;28;20041;-78
2022/11/12 02:27:26;;;;;;;7.97;5.43;;;7.20;99.90;;;;;;5003276;28;20046;-77
2022/11/12 02:29:52;;;;;;;12.25;6.43;;;7.20;99.90;;;;;;5003195;28;20502;-77
2022/11/12 02:32:17;;;;;;;7.43;5.78;;;7.30;99.90;;;;;;5003092;28;20041;-76
2022/11/12 02:34:43;;;;;;;7.35;5.18;;;7.30;99.90;;;;;;5004111;28;20073;-76
2022/11/12 02:37:08;;;;;;;6.70;4.47;;;7.30;99.90;;;;;;5006637;28;20069;-77
2022/11/12 02:39:34;;;;;;;11.35;6.50;;;7.40;99.90;;;;;;5007132;28;20045;-76
2022/11/12 02:41:59;;;;;;;9.27;7.30;;;7.40;99.90;;;;;;5006346;28;20492;-77
2022/11/12 02:44:25;;;;;;;7.63;6.05;;;7.50;99.90;;;;;;5008532;28;20045;-76
2022/11/12 02:46:51;;;;;;;13.45;6.03;;;7.50;99.90;;;;;;5009117;28;20396;-77
2022/11/12 02:49:16;;;;;;;8.82;6.32;;;7.50;99.90;;;;;;5017480;28;20128;-77
2022/11/12 02:51:42;;;;;;;12.07;6.82;;;7.50;99.90;;;;;;5027699;28;20045;-77
2022/11/12 02:54:07;;;;;;;9.57;5.85;;;7.60;99.90;;;;;;5026885;28;20072;-77
2022/11/12 02:56:34;;;;;;;9.38;7.18;;;7.50;99.90;;;;;;5027475;28;20763;-76
2022/11/12 02:59:00;;;;;;;6.75;4.68;;;7.60;99.90;;;;;;5008821;28;20038;-76
2022/11/12 03:01:26;;;;;;;7.90;5.82;;;7.60;99.90;;;;;;5006772;28;20046;-77
2022/11/12 03:03:51;;;;;;;10.05;6.63;;;7.60;99.90;;;;;;5006790;28;20555;-76
2022/11/12 03:06:17;;;;;;;13.80;7.82;;;7.60;99.90;;;;;;5021946;28;20124;-77
2022/11/12 03:08:43;;;;;;;20.65;7.53;;;7.60;99.90;;;;;;5025942;28;20506;-76
2022/11/12 03:11:12;;;;;;;18.08;7.13;;;7.60;99.90;;;;;;5027208;28;20183;-76
2022/11/12 03:13:38;;;;;;;8.38;6.85;;;7.60;99.90;;;;;;5027145;28;20041;-76
2022/11/12 03:16:04;;;;;;;11.85;8.00;;;7.60;99.90;;;;;;5026994;28;20038;-76
2022/11/12 03:18:30;;;;;;;12.63;7.28;;;7.70;99.90;;;;;;5026113;28;20480;-78
2022/11/12 03:20:55;;;;;;;10.65;8.30;;;7.70;99.90;;;;;;5025779;28;20053;-77
2022/11/12 03:23:21;;;;;;;9.73;7.53;;;7.70;99.90;;;;;;5016185;28;20077;-76
2022/11/12 03:25:47;;;;;;;12.35;7.00;;;7.70;99.90;;;;;;4999075;28;20060;-77
2022/11/12 03:28:15;;;;;;;10.27;7.63;;;7.80;99.90;;;;;;4987547;28;20046;-76
2022/11/12 03:30:42;;;;;;;10.82;7.40;;;7.80;99.90;;;;;;4987669;28;20049;-76
2022/11/12 03:33:10;;;;;;;11.45;7.50;;;7.80;99.90;;;;;;4985349;28;20046;-77
2022/11/12 03:35:36;;;;;;;12.73;8.40;;;7.80;99.90;;;;;;4987031;28;20592;-77
2022/11/12 03:38:03;;;;;;;11.82;8.00;;;7.90;99.90;;;;;;4987180;28;20480;-76
2022/11/12 03:40:30;;;;;;;9.63;6.95;;;7.90;99.90;;;;;;4987426;28;20105;-77
2022/11/12 03:42:56;;;;;;;12.75;8.68;;;7.90;99.90;;;;;;4987371;28;20054;-77
2022/11/12 03:45:24;;;;;;;11.25;6.75;;;7.90;99.90;;;;;;4987246;28;20046;-77
2022/11/12 03:47:52;;;;;;;9.52;8.13;;;7.90;99.90;;;;;;4985513;28;20050;-76
2022/11/12 03:50:19;;;;;;;11.80;8.45;;;7.90;99.90;;;;;;4985616;28;20141;-77
2022/11/12 03:52:47;;;;;;;10.38;8.38;;;8.00;99.90;;;;;;4997047;28;20487;-76
2022/11/12 03:55:16;;;;;;;11.38;7.03;;;7.90;99.90;;;;;;5026380;28;20386;-77
2022/11/12 03:57:42;;;;;;;13.60;8.82;;;8.00;99.90;;;;;;5025175;28;20049;-77
2022/11/12 04:00:09;;;;;;;16.95;8.75;;;8.00;99.90;;;;;;5025953;28;20044;-76
2022/11/12 04:02:35;;;;;;;13.10;9.55;;;8.00;99.90;;;;;;5025378;28;20094;-77
2022/11/12 04:10:34;;;;;;;15.00;8.77;;;8.00;99.90;;;;;;5006304;28;20057;-77
2022/11/12 04:15:44;;;;;;;26.00;11.98;;;8.10;99.90;;;;;;5004966;28;20042;-76
2022/11/12 04:23:39;;;;;;;15.00;11.05;;;8.10;99.90;;;;;;5006120;28;20064;-76
2022/11/12 04:26:23;;;;;;;15.65;11.32;;;8.10;99.90;;;;;;4995373;28;20034;-77
2022/11/12 04:31:33;;;;;;;29.38;12.70;;;8.10;99.90;;;;;;4986486;28;20146;-76
2022/11/12 04:34:27;;;;;;;21.98;11.70;;;8.10;99.90;;;;;;4995399;28;20475;-77
2022/11/12 04:36:44;;;;;;;21.77;12.50;;;8.10;99.90;;;;;;5005997;28;20449;-77
2022/11/12 04:39:10;;;;;;;16.15;10.45;;;8.10;99.90;;;;;;5005204;28;20518;-77
2022/11/12 04:47:04;;;;;;;21.48;13.15;;;8.20;99.90;;;;;;5003509;28;20046;-77
2022/11/12 04:49:29;;;;;;;17.80;13.35;;;8.20;99.90;;;;;;5020917;28;20037;-76
2022/11/12 04:52:04;;;;;;;21.80;12.18;;;8.20;99.90;;;;;;5026196;28;20052;-77
2022/11/12 04:54:29;;;;;;;21.60;11.85;;;8.30;99.90;;;;;;5023752;28;20045;-75
2022/11/12 04:56:55;;;;;;;31.55;14.15;;;8.30;99.90;;;;;;5025601;28;20377;-77
2022/11/12 04:59:20;;;;;;;22.63;14.90;;;8.30;99.90;;;;;;5024714;28;20048;-76
2022/11/12 05:01:47;;;;;;;24.05;14.70;;;8.30;99.90;;;;;;5023046;28;20132;-77
2022/11/12 05:04:13;;;;;;;24.20;15.30;;;8.30;99.90;;;;;;5013082;28;20544;-77
2022/11/12 05:06:50;;;;;;;23.98;15.07;;;8.30;99.90;;;;;;5005693;28;20049;-76
2022/11/12 05:09:17;;;;;;;30.77;16.08;;;8.40;99.90;;;;;;5004065;28;20049;-77
2022/11/12 05:11:43;;;;;;;23.05;14.52;;;8.40;99.90;;;;;;5005414;28;20050;-76
2022/11/12 05:14:08;;;;;;;23.23;15.82;;;8.40;99.90;;;;;;5004695;28;20464;-77
2022/11/12 05:16:34;;;;;;;25.48;17.08;;;8.40;99.90;;;;;;4987575;28;20096;-76
2022/11/12 05:19:00;;;;;;;30.45;15.98;;;8.40;99.90;;;;;;5004163;28;20034;-76
2022/11/12 05:24:10;;;;;;;31.00;17.05;;;8.50;99.90;;;;;;5004410;28;20053;-76
2022/11/12 05:26:35;;;;;;;32.55;18.75;;;8.50;99.90;;;;;;4990629;28;20050;-77
2022/11/12 05:29:01;;;;;;;31.42;17.25;;;8.50;99.90;;;;;;4994889;28;20060;-76
2022/11/12 05:31:27;;;;;;;31.40;18.38;;;8.60;99.90;;;;;;5005700;28;20074;-77
2022/11/12 05:33:52;;;;;;;25.77;18.60;;;8.60;99.90;;;;;;5012157;28;20121;-77
2022/11/12 05:36:18;;;;;;;32.22;18.17;;;8.60;99.90;;;;;;5024366;28;20056;-76
2022/11/12 05:38:43;;;;;;;30.63;21.50;;;8.60;99.90;;;;;;5024198;28;20041;-76
2022/11/12 05:41:09;;;;;;;38.95;19.42;;;8.60;99.90;;;;;;5023933;28;20045;-76
2022/11/12 05:43:34;;;;;;;40.20;20.45;;;8.60;99.90;;;;;;5024238;28;20047;-77
2022/11/12 05:46:00;;;;;;;30.90;19.10;;;8.70;99.90;;;;;;5022729;28;20045;-76
2022/11/12 05:48:25;;;;;;;35.95;22.20;;;8.70;99.90;;;;;;5011783;28;20045;-77
2022/11/12 05:50:52;;;;;;;38.15;24.58;;;8.70;99.90;;;;;;5004543;28;20045;-76
2022/11/12 05:53:18;;;;;;;35.92;20.92;;;8.70;99.90;;;;;;5004209;28;20049;-76
2022/11/12 05:55:43;;;;;;;39.25;22.10;;;8.70;99.90;;;;;;5004202;28;20033;-76
2022/11/12 05:58:09;;;;;;;38.88;23.15;;;8.70;99.90;;;;;;5003725;28;20124;-76
2022/11/12 06:00:37;;;;;;;29.50;19.38;;;8.70;99.90;;;;;;5005908;28;20412;-77
2022/11/12 06:03:07;;;;;;;41.45;26.80;;;8.70;99.90;;;;;;5003260;28;20089;-77
2022/11/12 06:05:33;;;;;;;39.47;23.27;;;8.80;99.90;;;;;;5004211;28;20121;-76
2022/11/12 06:07:59;;;;;;;43.03;23.98;;;8.80;99.90;;;;;;5009260;28;20565;-76
2022/11/12 06:10:25;;;;;;;43.55;25.20;;;8.80;99.90;;;;;;5023763;28;20045;-77
2022/11/12 06:12:51;;;;;;;39.53;23.50;;;8.80;99.90;;;;;;5024003;28;20075;-77
2022/11/12 06:15:17;;;;;;;43.35;25.75;;;8.80;99.90;;;;;;5014991;28;20037;-77
2022/11/12 06:17:43;;;;;;;41.78;22.80;;;8.80;99.90;;;;;;4985753;28;20046;-76
2022/11/12 06:20:09;;;;;;;40.70;24.02;;;8.80;99.90;;;;;;5002602;28;20037;-76
2022/11/12 06:22:35;;;;;;;46.72;25.95;;;8.80;99.90;;;;;;5002713;28;20050;-77
2022/11/12 06:25:01;;;;;;;47.35;25.95;;;8.80;99.90;;;;;;5000984;28;20042;-75
2022/11/12 06:27:26;;;;;;;48.70;27.02;;;8.80;99.90;;;;;;4985163;28;20053;-76
2022/11/12 06:29:52;;;;;;;47.63;27.15;;;8.80;99.90;;;;;;4983680;28;20058;-78
2022/11/12 06:32:17;;;;;;;47.63;28.60;;;8.80;99.90;;;;;;4983510;28;20931;-76
2022/11/12 06:34:43;;;;;;;53.72;27.92;;;8.90;99.90;;;;;;4999553;28;20480;-77
2022/11/12 06:37:09;;;;;;;51.80;26.63;;;8.80;99.90;;;;;;5008790;28;20038;-76
2022/11/12 06:39:34;;;;;;;42.15;25.95;;;8.90;99.90;;;;;;5003689;28;20049;-76
2022/11/12 06:42:00;;;;;;;58.50;28.15;;;8.90;99.90;;;;;;5003617;28;20046;-77
2022/11/12 06:44:26;;;;;;;41.55;25.50;;;8.90;99.90;;;;;;5004214;28;20050;-76
2022/11/12 06:46:52;;;;;;;45.58;26.02;;;8.90;99.90;;;;;;5009289;28;20041;-76
2022/11/12 06:49:17;;;;;;;47.97;30.25;;;8.90;99.90;;;;;;5021988;28;20042;-75
2022/11/12 06:51:43;;;;;;;49.15;28.65;;;8.90;99.90;;;;;;5023355;28;20124;-77
2022/11/12 06:54:08;;;;;;;50.35;27.13;;;8.90;99.90;;;;;;5023023;28;20033;-76
2022/11/12 06:56:34;;;;;;;48.55;26.88;;;8.90;99.90;;;;;;5021676;28;20041;-77
2022/11/12 06:58:59;;;;;;;46.90;29.17;;;8.90;99.90;;;;;;5022085;28;20484;-77
2022/11/12 07:01:25;;;;;;;59.95;26.92;;;8.90;99.90;;;;;;5022825;28;20472;-77
2022/11/12 07:03:52;;;;;;;50.20;27.35;;;8.90;99.90;;;;;;5023209;28;20412;-77
2022/11/12 07:06:19;;;;;;;52.70;27.85;;;8.90;99.90;;;;;;5022776;28;20527;-77
2022/11/12 07:08:49;;;;;;;39.60;24.40;;;8.90;99.90;;;;;;5022957;28;20116;-76
2022/11/12 07:11:15;;;;;;;38.45;28.27;;;8.90;99.90;;;;;;5023028;28;20049;-76
2022/11/12 07:13:43;;;;;;;48.88;27.40;;;8.90;99.90;;;;;;5022991;28;20045;-77
2022/11/12 07:16:10;;;;;;;53.47;28.33;;;8.90;99.90;;;;;;5022847;28;20046;-76
2022/11/12 07:18:36;;;;;;;48.95;27.38;;;8.90;99.90;;;;;;5002200;28;20050;-76
2022/11/12 07:21:14;;;;;;;55.20;26.17;;;8.90;99.90;;;;;;5003172;28;20124;-77
2022/11/12 07:23:40;;;;;;;41.97;25.70;;;8.90;99.90;;;;;;5007303;28;20041;-76
2022/11/12 07:26:11;;;;;;;46.45;25.30;;;8.90;99.90;;;;;;5004926;28;20730;-77
2022/11/12 07:28:37;;;;;;;55.70;28.80;;;8.90;99.90;;;;;;5018034;28;20554;-77
2022/11/12 07:31:05;;;;;;;44.67;26.20;;;8.90;99.90;;;;;;5026780;28;20049;-78
2022/11/12 07:33:32;;;;;;;57.60;29.00;;;8.90;99.90;;;;;;5011382;28;20091;-79
2022/11/12 07:36:08;;;;;;;36.78;24.45;;;8.90;99.90;;;;;;5026330;28;20038;-77
2022/11/12 07:38:36;;;;;;;39.45;25.15;;;8.90;99.90;;;;;;5009871;28;20056;-76
2022/11/12 07:41:04;;;;;;;43.30;24.10;;;8.90;99.90;;;;;;5005126;28;20077;-77
2022/11/12 07:43:31;;;;;;;33.05;21.48;;;8.90;99.90;;;;;;5006373;28;20060;-77
2022/11/12 07:46:01;;;;;;;40.80;23.60;;;8.90;99.90;;;;;;5005737;28;20050;-77
2022/11/12 07:48:28;;;;;;;43.45;21.52;;;8.90;99.90;;;;;;5004949;28;20492;-79
2022/11/12 07:51:06;;;;;;;39.35;22.35;;;8.90;99.90;;;;;;5005767;28;20074;-78
2022/11/12 07:53:32;;;;;;;34.05;23.75;;;8.90;99.90;;;;;;5005675;28;20046;-75
2022/11/12 07:55:59;;;;;;;33.97;20.90;;;8.90;99.90;;;;;;5006320;28;20057;-76
2022/11/12 07:58:26;;;;;;;33.15;21.27;;;8.90;99.90;;;;;;4988805;28;20057;-78
2022/11/12 08:00:52;;;;;;;34.65;21.45;;;8.90;99.90;;;;;;5005877;28;20365;-77
2022/11/12 08:03:19;;;;;;;38.75;21.73;;;8.90;99.90;;;;;;5005942;28;20069;-76
2022/11/12 08:05:45;;;;;;;36.13;23.73;;;8.90;99.90;;;;;;5026225;28;20184;-78
2022/11/12 08:08:11;;;;;;;34.10;22.63;;;8.90;99.90;;;;;;5025100;28;20118;-78
2022/11/12 08:10:37;;;;;;;33.35;22.25;;;8.90;99.90;;;;;;5025090;28;20554;-76
2022/11/12 08:13:03;;;;;;;35.03;20.55;;;8.90;99.90;;;;;;5025184;28;20531;-75
2022/11/12 08:15:30;;;;;;;30.67;18.75;;;8.90;99.90;;;;;;5012608;28;20056;-77
2022/11/12 08:17:55;;;;;;;30.90;19.15;;;8.90;99.90;;;;;;5005477;28;20046;-76
2022/11/12 08:20:21;;;;;;;27.70;18.73;;;9.00;99.90;;;;;;5004265;28;20512;-76
2022/11/12 08:22:47;;;;;;;35.30;19.38;;;9.00;99.90;;;;;;5009926;28;20387;-76
2022/11/12 08:25:13;;;;;;;31.80;20.02;;;8.90;99.90;;;;;;5022066;28;20038;-76
2022/11/12 08:27:39;;;;;;;29.70;17.67;;;8.90;99.90;;;;;;5008987;28;20038;-76
2022/11/12 08:30:05;;;;;;;31.65;19.73;;;8.90;99.90;;;;;;5003891;28;20077;-77
2022/11/12 08:32:31;;;;;;;29.27;18.90;;;8.90;99.90;;;;;;5004805;28;20050;-76
2022/11/12 08:34:56;;;;;;;26.80;18.30;;;8.90;99.90;;;;;;5005548;28;20150;-76
2022/11/12 08:37:22;;;;;;;38.35;19.50;;;8.90;99.90;;;;;;5003129;28;20034;-76
2022/11/12 08:39:47;;;;;;;29.55;19.45;;;8.90;99.90;;;;;;5005336;28;20377;-77
2022/11/12 08:42:13;;;;;;;27.67;17.95;;;8.90;99.90;;;;;;5003249;28;20088;-77
2022/11/12 08:44:39;;;;;;;25.95;18.13;;;8.90;99.90;;;;;;5004664;28;20052;-77
2022/11/12 08:47:04;;;;;;;27.70;15.23;;;8.90;99.90;;;;;;5001988;28;20049;-77
2022/11/12 08:49:30;;;;;;;22.55;14.80;;;8.90;99.90;;;;;;5004573;28;20855;-77
2022/11/12 08:51:56;;;;;;;26.05;17.50;;;8.90;99.90;;;;;;5005333;28;20061;-76
2022/11/12 08:54:22;;;;;;;29.10;16.38;;;8.90;99.90;;;;;;5003942;28;20046;-77
2022/11/12 08:56:48;;;;;;;29.60;18.23;;;8.90;99.90;;;;;;5004332;28;20048;-77
2022/11/12 08:59:13;;;;;;;25.25;15.35;;;8.90;99.90;;;;;;5003911;28;20392;-76
2022/11/12 09:01:39;;;;;;;23.90;16.48;;;8.90;99.90;;;;;;5004917;28;20136;-76
2022/11/12 09:04:04;;;;;;;28.45;16.35;;;8.90;99.90;;;;;;5001362;28;20049;-76
2022/11/12 09:06:30;;;;;;;24.83;14.90;;;8.90;99.90;;;;;;5006661;28;20476;-78
2022/11/12 09:08:56;;;;;;;26.95;16.98;;;8.90;99.90;;;;;;5004543;28;20104;-77
2022/11/12 09:11:22;;;;;;;24.50;17.85;;;8.90;99.90;;;;;;5002039;28;20505;-78
2022/11/12 09:13:48;;;;;;;29.23;18.92;;;8.90;99.90;;;;;;5002579;28;20049;-79
2022/11/12 09:16:14;;;;;;;26.75;18.15;;;9.00;99.90;;;;;;5003430;28;20061;-77
2022/11/12 09:18:39;;;;;;;24.42;16.58;;;8.90;99.90;;;;;;5003400;28;20416;-77
2022/11/12 09:21:08;;;;;;;30.02;15.38;;;8.90;99.90;;;;;;5004605;28;20041;-78
2022/11/12 09:23:34;;;;;;;24.73;16.48;;;8.90;99.90;;;;;;5004835;28;20511;-78
2022/11/12 09:26:00;;;;;;;24.73;16.00;;;8.90;99.90;;;;;;5002189;28;20050;-79
2022/11/12 09:28:26;;;;;;;23.63;15.77;;;8.90;99.90;;;;;;5004710;28;20496;-81
2022/11/12 09:30:53;;;;;;;22.35;15.00;;;8.90;99.90;;;;;;5004234;28;20060;-78
2022/11/12 09:33:23;;;;;;;26.13;15.88;;;8.90;99.90;;;;;;5011024;28;20068;-79
2022/11/12 09:35:49;;;;;;;25.13;16.23;;;9.00;99.90;;;;;;5015078;28;20074;-77
2022/11/12 09:38:16;;;;;;;19.48;13.13;;;8.90;99.90;;;;;;5003908;28;20037;-77
2022/11/12 09:41:12;;;;;;;17.10;14.38;;;8.90;99.90;;;;;;4998034;28;20072;-79
2022/11/12 09:43:41;;;;;;;20.50;14.70;;;8.90;99.90;;;;;;5001736;28;20049;-80
2022/11/12 09:46:18;;;;;;;22.35;13.00;;;8.90;99.90;;;;;;5002529;28;20369;-79
2022/11/12 09:48:50;;;;;;;27.88;15.68;;;8.90;99.90;;;;;;5001699;28;20050;-79
2022/11/12 09:51:21;;;;;;;21.95;15.15;;;8.90;99.90;;;;;;5004252;28;20050;-77
2022/11/12 09:53:57;;;;;;;26.58;14.82;;;8.90;99.90;;;;;;5004157;28;20038;-78
2022/11/12 09:56:23;;;;;;;23.88;13.80;;;8.90;99.90;;;;;;5003746;28;20133;-78
2022/11/12 09:58:50;;;;;;;21.63;14.18;;;8.90;99.90;;;;;;5001116;28;20041;-78
2022/11/12 10:01:36;;;;;;;14.93;11.05;;;8.80;99.90;;;;;;4998073;28;20073;-78
2022/11/12 10:04:25;;;;;;;18.55;13.95;;;8.90;99.90;;;;;;5003206;28;20045;-81
2022/11/12 10:07:15;;;;;;;27.13;14.90;;;8.80;99.90;;;;;;5002533;28;20136;-77
2022/11/12 10:10:02;;;;;;;17.27;10.63;;;8.80;99.90;;;;;;5006912;28;20077;-79
2022/11/12 10:13:16;;;;;;;17.33;11.43;;;8.80;99.90;;;;;;5004057;28;20042;-79
2022/11/12 10:19:12;;;;;;;24.98;13.18;;;8.80;99.90;;;;;;4996666;28;20088;-78
2022/11/12 10:21:56;;;;;;;28.90;14.50;;;8.80;99.90;;;;;;4983867;28;20038;-78
2022/11/12 10:24:23;;;;;;;23.52;13.30;;;8.80;99.90;;;;;;4993972;28;20049;-78
2022/11/12 10:26:50;;;;;;;18.88;13.88;;;8.90;99.90;;;;;;5005821;28;20269;-79
2022/11/12 10:29:27;;;;;;;22.52;13.70;;;8.90;99.90;;;;;;5003997;28;20057;-77
2022/11/12 10:31:52;;;;;;;25.05;16.13;;;8.80;99.90;;;;;;5001230;28;20113;-79
2022/11/12 10:34:19;;;;;;;52.78;14.98;;;8.90;99.90;;;;;;4985083;28;20575;-76
2022/11/12 10:36:53;;;;;;;28.30;16.08;;;8.80;99.90;;;;;;5002388;28;20076;-77
2022/11/12 10:39:35;;;;;;;21.77;13.45;;;8.80;99.90;;;;;;4999909;28;20077;-75
2022/11/12 10:42:07;;;;;;;27.35;16.38;;;8.80;99.90;;;;;;5001189;28;20038;-76
2022/11/12 10:44:33;;;;;;;21.48;12.85;;;8.80;99.90;;;;;;4999808;28;20112;-77
2022/11/12 10:47:22;;;;;;;22.23;13.48;;;8.90;99.90;;;;;;4997627;28;20045;-77
2022/11/12 10:50:21;;;;;;;24.27;15.73;;;8.90;99.90;;;;;;5000060;28;20046;-77
2022/11/12 10:53:02;;;;;;;27.33;16.67;;;8.90;99.90;;;;;;4985164;28;20049;-75
2022/11/12 10:55:33;;;;;;;26.42;15.18;;;8.90;99.90;;;;;;5000096;28;20046;-77
2022/11/12 10:58:02;;;;;;;24.08;18.30;;;8.90;99.90;;;;;;5002308;28;20038;-77
2022/11/12 11:00:27;;;;;;;24.52;14.57;;;8.90;99.90;;;;;;5012999;28;20077;-77
2022/11/12 11:02:54;;;;;;;28.40;15.73;;;8.90;99.90;;;;;;5005521;28;20551;-79
2022/11/12 11:05:29;;;;;;;25.95;17.70;;;8.90;99.90;;;;;;4988791;28;20034;-77
2022/11/12 11:07:56;;;;;;;20.80;15.63;;;8.90;99.90;;;;;;5005550;28;20570;-77
2022/11/12 11:10:32;;;;;;;23.88;16.58;;;8.90;99.90;;;;;;5006131;28;20053;-77
2022/11/12 11:13:17;;;;;;;36.03;21.17;;;9.00;99.90;;;;;;5007098;28;20400;-78
2022/11/12 11:16:01;;;;;;;25.38;17.33;;;9.00;99.90;;;;;;4985862;28;20064;-77
2022/11/12 11:18:29;;;;;;;34.83;21.63;;;9.00;99.90;;;;;;4987055;28;20087;-83
2022/11/12 11:21:13;;;;;;;30.40;19.08;;;9.00;99.90;;;;;;5005353;28;20061;-81
2022/11/12 11:24:05;;;;;;;37.15;21.83;;;9.10;99.90;;;;;;5005365;28;20115;-77
2022/11/12 11:26:58;;;;;;;36.78;20.17;;;9.10;99.90;;;;;;4989017;28;20038;-82
2022/11/12 11:29:41;;;;;;;31.15;20.80;;;9.10;99.90;;;;;;4991360;28;20042;-77
2022/11/12 11:32:25;;;;;;;37.78;19.10;;;9.20;99.90;;;;;;5008399;28;20042;-77
2022/11/12 11:35:17;;;;;;;40.97;24.15;;;9.20;99.90;;;;;;5004078;28;20092;-78
2022/11/12 11:37:58;;;;;;;30.60;20.83;;;9.20;99.90;;;;;;5006288;28;20562;-80
2022/11/12 11:40:53;;;;;;;38.55;22.42;;;9.30;99.90;;;;;;5004126;28;20328;-78
2022/11/12 11:43:39;;;;;;;35.38;23.15;;;9.30;99.90;;;;;;5001430;28;20510;-79
2022/11/12 11:46:32;;;;;;;38.53;24.95;;;9.30;99.90;;;;;;5001475;28;20038;-77
2022/11/12 11:49:18;;;;;;;36.97;22.55;;;9.30;99.90;;;;;;5003508;28;20119;-79
2022/11/12 11:52:18;;;;;;;44.60;23.55;;;9.40;99.90;;;;;;5002617;28;20109;-78
2022/11/12 11:55:27;;;;;;;37.65;24.00;;;9.40;99.90;;;;;;5006546;28;20234;-81
2022/11/12 11:58:01;;;;;;;50.88;25.98;;;9.40;99.90;;;;;;4984613;28;20322;-80
2022/11/12 12:00:53;;;;;;;48.83;26.02;;;9.40;99.90;;;;;;4968533;28;20485;-78
2022/11/12 12:03:44;;;;;;;41.08;24.95;;;9.50;99.90;;;;;;5005967;28;20659;-80
2022/11/12 12:06:19;;;;;;;47.08;26.50;;;9.50;99.90;;;;;;5002543;28;20058;-80
2022/11/12 12:09:05;;;;;;;47.50;28.45;;;9.50;99.90;;;;;;4984881;28;20070;-86
2022/11/12 12:11:54;;;;;;;41.35;26.40;;;9.50;99.90;;;;;;5002432;28;20046;-78
2022/11/12 12:14:51;;;;;;;48.83;27.02;;;9.60;99.90;;;;;;5005228;28;20060;-82
2022/11/12 12:17:30;;;;;;;34.30;25.15;;;9.60;99.90;;;;;;4996821;28;20054;-84
2022/11/12 12:20:29;;;;;;;50.25;28.40;;;9.60;99.90;;;;;;5002660;28;20501;-84
2022/11/12 12:23:26;;;;;;;53.40;29.30;;;9.60;99.90;;;;;;5005478;28;20037;-80
2022/11/12 12:25:54;;;;;;;44.63;25.35;;;9.70;99.90;;;;;;4997126;28;20053;-80
2022/11/12 12:28:58;;;;;;;41.22;27.90;;;9.70;99.90;;;;;;5004723;28;20041;-79
2022/11/12 12:31:30;;;;;;;42.95;25.20;;;9.70;99.90;;;;;;4987822;28;20045;-81
2022/11/12 12:34:01;;;;;;;43.97;30.83;;;9.70;99.90;;;;;;5005285;28;20026;-77
2022/11/12 12:36:38;;;;;;;48.35;30.38;;;9.70;99.90;;;;;;5004852;28;20042;-79
2022/11/12 12:39:12;;;;;;;44.83;28.45;;;9.80;99.90;;;;;;5003613;28;20046;-80
2022/11/12 12:41:49;;;;;;;50.60;29.60;;;9.80;99.90;;;;;;4986320;28;20515;-77
2022/11/12 12:44:14;;;;;;;51.08;32.25;;;9.80;99.90;;;;;;5003969;28;20370;-78
2022/11/12 12:47:01;;;;;;;52.33;32.03;;;9.80;99.90;;;;;;5001928;28;20206;-77
2022/11/12 12:49:35;;;;;;;49.75;35.08;;;9.90;99.90;;;;;;5002990;28;20088;-77
2022/11/12 12:52:01;;;;;;;57.90;32.60;;;9.90;99.90;;;;;;5002480;28;20034;-77
2022/11/12 12:54:39;;;;;;;53.78;31.90;;;9.90;99.90;;;;;;5002871;28;20053;-80
2022/11/12 12:57:36;;;;;;;50.05;31.77;;;9.90;99.90;;;;;;5003191;28;20429;-79
2022/11/12 13:00:33;;;;;;;52.08;34.08;;;9.90;99.90;;;;;;5003016;28;20127;-79
2022/11/12 13:02:59;;;;;;;50.88;32.50;;;10.00;99.90;;;;;;4998411;28;20063;-77
2022/11/12 13:05:33;;;;;;;54.50;34.97;;;10.00;99.90;;;;;;4986914;28;20362;-79
2022/11/12 13:08:04;;;;;;;51.90;33.20;;;10.00;99.90;;;;;;5004040;28;20037;-79
2022/11/12 13:10:33;;;;;;;55.22;33.38;;;10.00;99.90;;;;;;5001815;28;20049;-78
2022/11/12 13:13:16;;;;;;;54.58;34.22;;;10.00;99.90;;;;;;5003122;28;20419;-79
2022/11/12 13:15:45;;;;;;;52.90;33.00;;;10.00;99.90;;;;;;4998699;28;20096;-78
2022/11/12 13:18:30;;;;;;;55.20;34.95;;;10.00;99.90;;;;;;4985192;28;20043;-79
2022/11/12 13:21:10;;;;;;;44.17;32.88;;;10.00;99.90;;;;;;4989888;28;20046;-78
2022/11/12 13:24:05;;;;;;;51.25;34.45;;;10.10;99.90;;;;;;4985479;28;20071;-78
2022/11/12 13:26:46;;;;;;;51.15;34.83;;;10.10;99.90;;;;;;5001563;28;20033;-79
2022/11/12 13:29:39;;;;;;;47.78;32.55;;;10.10;99.90;;;;;;5003351;28;20057;-78